Time;durP1;ratioP1;P1;durP2;ratioP2;P2;SDS_P1;SDS_P2;PMS_P1;PMS_P2;Temp;Humidity;BMP_temperature;BMP_pressure;BME280_temperature;BME280_humidity;BME280_pressure;Samples;Min_cycle;Max_cycle;Signal;HPM_P1;HPM_P2
2023/04/02 00:01:38;;;;;;;5.25;2.45;;;;;;;;;;4903839;29;20028;-75
2023/04/02 00:04:07;;;;;;;17.25;4.22;;;;;;;;;;4881447;29;20052;-76
2023/04/02 00:06:43;;;;;;;5.68;2.85;;;;;;;;;;4902081;29;20393;-75
2023/04/02 00:09:12;;;;;;;7.80;2.22;;;;;;;;;;4889398;29;20481;-76
2023/04/02 00:11:44;;;;;;;9.07;3.30;;;;;;;;;;4880007;29;20104;-75
2023/04/02 00:14:34;;;;;;;7.70;2.87;;;;;;;;;;4883658;29;20040;-76
2023/04/02 00:17:01;;;;;;;6.57;2.83;;;;;;;;;;4898531;29;20055;-74
2023/04/02 00:19:30;;;;;;;6.25;2.50;;;;;;;;;;4901281;29;20272;-74
2023/04/02 00:21:57;;;;;;;10.20;3.13;;;;;;;;;;4888782;29;20036;-75
2023/04/02 00:24:23;;;;;;;8.95;3.03;;;;;;;;;;4884956;29;20029;-75
2023/04/02 00:26:50;;;;;;;10.27;2.78;;;;;;;;;;4900631;29;20033;-74
2023/04/02 00:29:17;;;;;;;9.45;2.90;;;;;;;;;;4896041;29;20426;-74
2023/04/02 00:31:46;;;;;;;7.25;2.70;;;;;;;;;;4902087;29;20032;-74
2023/04/02 00:34:35;;;;;;;7.85;2.28;;;;;;;;;;4884893;29;20033;-75
2023/04/02 00:37:01;;;;;;;5.60;3.00;;;;;;;;;;4892386;29;20044;-75
2023/04/02 00:39:34;;;;;;;8.32;3.20;;;;;;;;;;4881673;29;20443;-75
2023/04/02 00:42:06;;;;;;;;;;;;;;;;;;4882260;29;20049;-75
2023/04/02 00:44:34;;;;;;;10.80;2.70;;;;;;;;;;4881798;29;19919;-75
2023/04/02 00:47:13;;;;;;;9.73;2.88;;;;;;;;;;4894079;29;20033;-75
2023/04/02 00:49:40;;;;;;;4.88;2.70;;;;;;;;;;4895914;29;20032;-74
2023/04/02 00:52:11;;;;;;;6.70;2.97;;;;;;;;;;4903399;29;20119;-75
2023/04/02 00:55:10;;;;;;;7.68;3.25;;;;;;;;;;4890055;29;20027;-74
2023/04/02 00:57:36;;;;;;;9.90;3.28;;;;;;;;;;4900477;29;20043;-74
2023/04/02 01:00:14;;;;;;;5.20;2.83;;;;;;;;;;4884630;29;20056;-75
2023/04/02 01:02:41;;;;;;;5.97;3.17;;;;;;;;;;4889592;29;20043;-75
2023/04/02 01:05:16;;;;;;;10.75;3.25;;;;;;;;;;4899307;29;20465;-75
2023/04/02 01:07:55;;;;;;;8.00;2.40;;;;;;;;;;4902548;29;20519;-75
2023/04/02 01:10:24;;;;;;;8.00;2.63;;;;;;;;;;4891977;29;20035;-75
2023/04/02 01:12:55;;;;;;;7.13;2.67;;;;;;;;;;4897521;29;20032;-75
2023/04/02 01:15:25;;;;;;;8.10;2.92;;;;;;;;;;4887524;29;20025;-74
2023/04/02 01:18:00;;;;;;;6.75;2.58;;;;;;;;;;4898277;29;20069;-75
2023/04/02 01:20:32;;;;;;;8.20;2.42;;;;;;;;;;4900248;29;20037;-75
2023/04/02 01:23:07;;;;;;;10.50;2.83;;;;;;;;;;4900753;29;20482;-75
2023/04/02 01:25:56;;;;;;;6.65;2.72;;;;;;;;;;4903489;29;20108;-73
2023/04/02 01:28:26;;;;;;;8.05;2.53;;;;;;;;;;4907590;29;20049;-78
2023/04/02 01:30:53;;;;;;;8.43;2.45;;;;;;;;;;4900917;29;20024;-74
2023/04/02 01:33:25;;;;;;;4.28;2.17;;;;;;;;;;4899288;29;20025;-74
2023/04/02 01:36:12;;;;;;;9.48;2.53;;;;;;;;;;4885941;29;20025;-74
2023/04/02 01:38:46;;;;;;;5.60;2.88;;;;;;;;;;4901565;29;20036;-75
2023/04/02 01:41:26;;;;;;;12.02;2.92;;;;;;;;;;4898634;29;20044;-75
2023/04/02 01:43:55;;;;;;;5.70;2.28;;;;;;;;;;4897811;29;20028;-75
2023/04/02 01:46:26;;;;;;;7.00;2.50;;;;;;;;;;4899824;29;20084;-74
2023/04/02 01:48:53;;;;;;;8.18;2.78;;;;;;;;;;4902326;29;20426;-74
2023/04/02 01:51:24;;;;;;;8.15;2.70;;;;;;;;;;4884941;29;20033;-75
2023/04/02 01:53:50;;;;;;;9.75;2.63;;;;;;;;;;4887209;29;20033;-74
2023/04/02 01:56:17;;;;;;;7.15;2.28;;;;;;;;;;4903398;29;20029;-77
2023/04/02 01:58:43;;;;;;;10.25;2.40;;;;;;;;;;4886860;29;20037;-75
2023/04/02 02:01:14;;;;;;;9.05;2.75;;;;;;;;;;4897658;29;20044;-78
2023/04/02 02:03:42;;;;;;;6.60;2.75;;;;;;;;;;4900574;29;20057;-78
2023/04/02 02:06:10;;;;;;;6.22;2.20;;;;;;;;;;4896159;29;20396;-75
2023/04/02 02:08:38;;;;;;;7.18;2.30;;;;;;;;;;4900082;29;20506;-75
2023/04/02 02:11:05;;;;;;;8.65;2.92;;;;;;;;;;4900280;29;20080;-76
2023/04/02 02:13:32;;;;;;;5.68;2.75;;;;;;;;;;4899802;29;20028;-75
2023/04/02 02:15:59;;;;;;;8.93;1.90;;;;;;;;;;4905462;29;20037;-75
2023/04/02 02:18:26;;;;;;;5.20;2.47;;;;;;;;;;4897647;29;20040;-74
2023/04/02 02:20:52;;;;;;;9.82;2.83;;;;;;;;;;4887127;29;20382;-73
2023/04/02 02:23:20;;;;;;;6.40;2.22;;;;;;;;;;4894445;29;20455;-73
2023/04/02 02:25:47;;;;;;;13.40;3.20;;;;;;;;;;4901521;29;20390;-77
2023/04/02 02:28:39;;;;;;;6.07;2.53;;;;;;;;;;4893038;29;20041;-74
2023/04/02 02:31:07;;;;;;;7.20;2.30;;;;;;;;;;4901773;29;20056;-76
2023/04/02 02:33:39;;;;;;;5.60;2.35;;;;;;;;;;4893536;29;20094;-75
2023/04/02 02:36:07;;;;;;;3.67;2.10;;;;;;;;;;4898988;29;20061;-76
2023/04/02 02:38:39;;;;;;;10.00;1.90;;;;;;;;;;4903525;29;20040;-75
2023/04/02 02:41:25;;;;;;;8.80;2.10;;;;;;;;;;4886443;29;20029;-76
2023/04/02 02:43:54;;;;;;;5.22;2.13;;;;;;;;;;4883495;29;20474;-73
2023/04/02 02:46:21;;;;;;;6.20;2.05;;;;;;;;;;4898167;29;20440;-78
2023/04/02 02:48:48;;;;;;;5.57;3.17;;;;;;;;;;4889729;29;20028;-74
2023/04/02 02:51:20;;;;;;;5.55;1.73;;;;;;;;;;4873867;29;20088;-76
2023/04/02 02:53:50;;;;;;;4.80;1.73;;;;;;;;;;4900862;29;20036;-77
2023/04/02 02:56:16;;;;;;;3.72;1.83;;;;;;;;;;4899526;29;20484;-74
2023/04/02 02:58:42;;;;;;;6.30;1.95;;;;;;;;;;4885761;29;20447;-74
2023/04/02 03:01:08;;;;;;;6.60;1.77;;;;;;;;;;4895864;29;20056;-75
2023/04/02 03:03:35;;;;;;;9.23;1.75;;;;;;;;;;4894332;29;20084;-74
2023/04/02 03:06:04;;;;;;;9.88;2.15;;;;;;;;;;4875032;29;20028;-75
2023/04/02 03:08:41;;;;;;;7.47;1.80;;;;;;;;;;4897385;29;20040;-75
2023/04/02 03:11:30;;;;;;;3.30;1.40;;;;;;;;;;4882004;29;20037;-76
2023/04/02 03:14:01;;;;;;;9.23;1.85;;;;;;;;;;4895459;29;20453;-75
2023/04/02 03:16:40;;;;;;;3.80;1.30;;;;;;;;;;4882758;29;20514;-74
2023/04/02 03:19:25;;;;;;;6.13;1.67;;;;;;;;;;4898105;29;20397;-76
2023/04/02 03:21:55;;;;;;;4.60;1.50;;;;;;;;;;4887571;29;20474;-75
2023/04/02 03:24:24;;;;;;;8.85;2.17;;;;;;;;;;4900974;29;20504;-74
2023/04/02 03:27:00;;;;;;;6.30;1.50;;;;;;;;;;4903979;29;20053;-75
2023/04/02 03:29:28;;;;;;;2.55;1.27;;;;;;;;;;4890828;29;20033;-75
2023/04/02 03:31:57;;;;;;;2.22;1.38;;;;;;;;;;4901742;29;21647;-75
2023/04/02 03:34:31;;;;;;;5.18;1.10;;;;;;;;;;4887524;29;20486;-75
2023/04/02 03:37:18;;;;;;;4.97;1.35;;;;;;;;;;4883845;29;20048;-74
2023/04/02 03:39:44;;;;;;;5.38;1.35;;;;;;;;;;4886007;29;20139;-75
2023/04/02 03:42:15;;;;;;;6.78;1.20;;;;;;;;;;4906082;29;20029;-75
2023/04/02 03:44:50;;;;;;;6.40;1.42;;;;;;;;;;4902888;29;20112;-75
2023/04/02 03:47:35;;;;;;;6.65;1.80;;;;;;;;;;4891186;29;20043;-74
2023/04/02 03:50:20;;;;;;;7.00;2.38;;;;;;;;;;4884360;29;20726;-75
2023/04/02 03:52:47;;;;;;;3.67;1.90;;;;;;;;;;4891350;29;20112;-75
2023/04/02 03:55:16;;;;;;;2.38;1.00;;;;;;;;;;4904698;29;20033;-76
2023/04/02 03:57:42;;;;;;;4.68;1.48;;;;;;;;;;4875859;29;20044;-75
2023/04/02 04:00:15;;;;;;;7.15;1.42;;;;;;;;;;4889396;29;20045;-77
2023/04/02 04:02:44;;;;;;;7.00;1.85;;;;;;;;;;4883077;29;20041;-77
2023/04/02 04:17:50;;;;;;;3.55;1.70;;;;;;;;;;4907057;29;20119;-75
2023/04/02 04:20:16;;;;;;;7.93;3.05;;;;;;;;;;4901314;29;20032;-74
2023/04/02 04:22:43;;;;;;;12.05;1.77;;;;;;;;;;4887000;29;20047;-74
2023/04/02 04:25:21;;;;;;;5.68;1.60;;;;;;;;;;4888600;29;20032;-77
2023/04/02 04:27:57;;;;;;;8.63;1.10;;;;;;;;;;4883732;29;20047;-76
2023/04/02 04:30:28;;;;;;;4.53;1.27;;;;;;;;;;4898629;29;20033;-75
2023/04/02 04:33:04;;;;;;;3.58;1.20;;;;;;;;;;4882524;29;20033;-77
2023/04/02 04:41:18;;;;;;;4.20;1.45;;;;;;;;;;4877951;29;20143;-79
2023/04/02 04:43:47;;;;;;;8.75;1.65;;;;;;;;;;4886564;29;20060;-77
2023/04/02 04:47:05;;;;;;;7.15;1.38;;;;;;;;;;4881427;29;20035;-78
2023/04/02 04:49:34;;;;;;;6.47;1.65;;;1.70;99.90;;;;;;4888765;29;20036;-78
2023/04/02 04:52:21;;;;;;;5.55;1.20;;;;;;;;;;4886185;29;20040;-78
2023/04/02 04:54:47;;;;;;;10.13;2.22;;;;;;;;;;4886780;29;20074;-78
2023/04/02 04:57:31;;;;;;;5.00;1.60;;;;;;;;;;4887466;29;20510;-76
2023/04/02 05:00:20;;;;;;;8.75;2.08;;;;;;;;;;4896009;29;20043;-81
2023/04/02 05:02:49;;;;;;;5.13;1.45;;;;;;;;;;4906522;29;20041;-75
2023/04/02 05:05:25;;;;;;;12.13;1.77;;;;;;;;;;4880626;29;20033;-78
2023/04/02 05:08:02;;;;;;;4.80;1.45;;;;;;;;;;4887511;29;20064;-80
2023/04/02 05:10:36;;;;;;;5.80;1.30;;;;;;;;;;4884772;29;20534;-79
2023/04/02 05:13:09;;;;;;;8.60;1.92;;;;;;;;;;4899782;29;20439;-77
2023/04/02 05:15:40;;;;;;;5.53;1.52;;;;;;;;;;4889291;29;20120;-79
2023/04/02 05:18:20;;;;;;;6.80;1.50;;;;;;;;;;4905028;29;20482;-77
2023/04/02 05:21:12;;;;;;;7.97;1.48;;;;;;;;;;4893021;29;20029;-78
2023/04/02 05:23:48;;;;;;;4.68;1.60;;;;;;;;;;4889166;29;20068;-76
2023/04/02 05:26:16;;;;;;;6.35;1.50;;;;;;;;;;4894142;29;20037;-79
2023/04/02 05:28:53;;;;;;;10.15;2.03;;;;;;;;;;4887949;29;20435;-79
2023/04/02 05:31:33;;;;;;;8.48;1.77;;;;;;;;;;4890074;29;20037;-78
2023/04/02 05:33:59;;;;;;;3.60;1.30;;;;;;;;;;4893965;29;20072;-76
2023/04/02 05:36:28;;;;;;;7.65;2.17;;;;;;;;;;4861693;29;20033;-74
2023/04/02 05:38:55;;;;;;;3.70;0.93;;;;;;;;;;4892202;29;20039;-75
2023/04/02 05:41:21;;;;;;;7.05;1.80;;;;;;;;;;4878328;29;20028;-76
2023/04/02 05:43:48;;;;;;;6.20;1.40;;;;;;;;;;4898179;29;20029;-77
2023/04/02 05:46:16;;;;;;;3.22;1.10;;;;;;;;;;4899902;29;20481;-77
2023/04/02 05:48:43;;;;;;;4.55;1.33;;;;;;;;;;4893279;29;20084;-75
2023/04/02 05:51:15;;;;;;;9.20;1.70;;;;;;;;;;4888734;29;20025;-77
2023/04/02 05:53:46;;;;;;;6.07;1.33;;;;;;;;;;4889759;29;20056;-77
2023/04/02 05:56:17;;;;;;;6.03;1.23;;;;;;;;;;4888665;29;20398;-81
2023/04/02 05:58:43;;;;;;;11.20;2.55;;;;;;;;;;4882215;29;20048;-79
2023/04/02 06:01:14;;;;;;;1.67;1.20;;;;;;;;;;4904974;29;20037;-79
2023/04/02 06:04:02;;;;;;;5.93;1.08;;;;;;;;;;4891592;29;20056;-81
2023/04/02 06:06:48;;;;;;;6.38;1.52;;;;;;;;;;4902994;29;20029;-79
2023/04/02 06:09:18;;;;;;;10.82;2.17;;;;;;;;;;4889936;29;20024;-81
2023/04/02 06:11:47;;;;;;;8.48;1.10;;;;;;;;;;4911260;29;20371;-81
2023/04/02 06:14:14;;;;;;;6.22;1.20;;;;;;;;;;4896346;29;20028;-74
2023/04/02 06:16:42;;;;;;;9.55;1.50;;;;;;;;;;4890390;29;20044;-77
2023/04/02 06:19:14;;;;;;;10.90;2.83;;;;;;;;;;4885413;29;20075;-76
2023/04/02 06:21:48;;;;;;;6.70;1.30;;;;;;;;;;4888916;29;20546;-75
2023/04/02 06:24:17;;;;;;;7.28;1.10;;;;;;;;;;4882657;29;20028;-76
2023/04/02 06:26:52;;;;;;;4.13;1.15;;;;;;;;;;4893269;29;20029;-77
2023/04/02 06:29:25;;;;;;;3.63;1.20;;;;;;;;;;4884195;29;20093;-80
2023/04/02 06:31:53;;;;;;;5.60;1.90;;;;;;;;;;4905359;29;20028;-80
2023/04/02 06:34:24;;;;;;;3.22;1.23;;;;;;;;;;4891021;29;20474;-78
2023/04/02 06:36:51;;;;;;;6.75;1.50;;;;;;;;;;4877342;29;20422;-77
2023/04/02 06:42:22;;;;;;;4.97;1.73;;;;;;;;;;4884973;29;20052;-79
2023/04/02 06:44:49;;;;;;;6.57;1.60;;;;;;;;;;4889380;29;20036;-78
2023/04/02 06:47:18;;;;;;;8.38;2.35;;;;;;;;;;4908350;29;20114;-78
2023/04/02 06:49:54;;;;;;;8.20;1.17;;;;;;;;;;4910781;29;20045;-79
2023/04/02 06:52:26;;;;;;;3.50;0.73;;;;;;;;;;4903703;29;20064;-79
2023/04/02 06:54:53;;;;;;;7.47;1.20;;;;;;;;;;4885673;29;20091;-77
2023/04/02 06:57:20;;;;;;;5.68;1.13;;;;;;;;;;4892518;29;20498;-77
2023/04/02 06:59:46;;;;;;;7.25;1.38;;;;;;;;;;4890456;29;21823;-75
2023/04/02 07:02:28;;;;;;;4.82;1.40;;;;;;;;;;4892729;29;20039;-77
2023/04/02 07:04:58;;;;;;;9.75;1.83;;;;;;;;;;4889906;29;20048;-79
2023/04/02 07:07:24;;;;;;;6.50;0.90;;;;;;;;;;4910344;29;20033;-77
2023/04/02 07:09:50;;;;;;;6.72;1.38;;;;;;;;;;4904096;29;20071;-77
2023/04/02 07:12:19;;;;;;;5.20;1.42;;;;;;;;;;4888830;29;20390;-76
2023/04/02 07:14:46;;;;;;;7.13;1.27;;;;;;;;;;4887746;29;21783;-78
2023/04/02 07:17:16;;;;;;;4.22;1.00;;;;;;;;;;4908311;29;20041;-75
2023/04/02 07:19:44;;;;;;;28.95;15.27;;;;;;;;;;4903668;29;20029;-77
2023/04/02 07:22:10;;;;;;;11.70;3.13;;;;;;;;;;4902205;29;20047;-76
2023/04/02 07:24:36;;;;;;;12.32;5.93;;;;;;;;;;4882697;29;20044;-76
2023/04/02 07:27:02;;;;;;;11.40;4.35;;;;;;;;;;4886534;29;20398;-78
2023/04/02 07:29:29;;;;;;;4.95;2.00;;;;;;;;;;4884095;29;20020;-78
2023/04/02 07:31:55;;;;;;;6.35;1.27;;;;;;;;;;4886504;29;20040;-78
2023/04/02 07:34:21;;;;;;;6.55;2.60;;;;;;;;;;4879558;29;20037;-84
2023/04/02 07:36:48;;;;;;;5.65;1.90;;;;;;;;;;4893903;29;20182;-81
2023/04/02 07:39:15;;;;;;;6.35;2.35;;;;;;;;;;4884517;29;20112;-80
2023/04/02 07:41:55;;;;;;;12.45;5.20;;;;;;;;;;4893896;29;20044;-76
2023/04/02 07:44:21;;;;;;;7.82;2.22;;;;;;;;;;4902078;29;20474;-77
2023/04/02 07:46:47;;;;;;;7.28;1.48;;;;;;;;;;4889965;29;20044;-77
2023/04/02 07:49:13;;;;;;;6.22;2.00;;;;;;;;;;4886309;29;20363;-78
2023/04/02 07:51:39;;;;;;;9.35;3.42;;;;;;;;;;4873346;29;20043;-77
2023/04/02 07:54:08;;;;;;;4.80;1.23;;;;;;;;;;4863097;29;20037;-77
2023/04/02 07:56:35;;;;;;;7.60;2.47;;;;;;;;;;4870955;29;20033;-77
2023/04/02 07:59:01;;;;;;;5.38;2.00;;;;;;;;;;4881486;29;20040;-80
2023/04/02 08:01:28;;;;;;;8.07;1.92;;;;;;;;;;4896014;29;20037;-77
2023/04/02 08:04:08;;;;;;;10.15;4.63;;;;;;;;;;4886873;29;20496;-79
2023/04/02 08:06:35;;;;;;;8.30;2.40;;;;;;;;;;4892561;29;20041;-80
2023/04/02 08:09:01;;;;;;;5.20;1.40;;;;;;;;;;4883120;29;20402;-76
2023/04/02 08:11:27;;;;;;;7.03;2.05;;;;;;;;;;4859498;29;20038;-73
2023/04/02 08:13:53;;;;;;;3.67;1.30;;;;;;;;;;4889720;29;21862;-75
2023/04/02 08:16:19;;;;;;;6.20;1.30;;;;;;;;;;4892679;29;20538;-74
2023/04/02 08:18:46;;;;;;;8.82;2.28;;;;;;;;;;4887784;29;20176;-74
2023/04/02 08:21:13;;;;;;;4.13;1.05;;;;;;;;;;4888886;29;20489;-74
2023/04/02 08:23:39;;;;;;;5.72;0.95;;;;;;;;;;4888516;29;20033;-74
2023/04/02 08:26:05;;;;;;;5.13;1.15;;;;;;;;;;4901031;29;20117;-74
2023/04/02 08:28:33;;;;;;;4.40;1.52;;;;;;;;;;4889880;29;20036;-75
2023/04/02 08:30:59;;;;;;;5.43;1.25;;;;;;;;;;4907292;29;20489;-74
2023/04/02 08:33:25;;;;;;;5.40;2.25;;;;;;;;;;4893565;29;20051;-74
2023/04/02 08:35:51;;;;;;;4.13;1.42;;;;;;;;;;4884239;29;20039;-74
2023/04/02 08:38:18;;;;;;;3.60;1.35;;;;;;;;;;4896860;29;20490;-74
2023/04/02 08:40:49;;;;;;;3.00;1.25;;;;;;;;;;4896317;29;20072;-75
2023/04/02 08:43:15;;;;;;;3.95;1.25;;;;;;;;;;4911383;29;20032;-74
2023/04/02 08:45:47;;;;;;;3.92;1.73;;;;;;;;;;4896423;29;20032;-75
2023/04/02 08:48:14;;;;;;;6.78;2.05;;;;;;;;;;4894446;29;20549;-74
2023/04/02 08:50:41;;;;;;;4.50;1.65;;;;;;;;;;4911025;29;20059;-74
2023/04/02 08:53:15;;;;;;;5.50;2.22;;;;;;;;;;4896596;29;20039;-76
2023/04/02 08:55:41;;;;;;;3.53;1.27;;;;;;;;;;4905944;29;20521;-75
2023/04/02 08:58:20;;;;;;;2.75;0.77;;;;;;;;;;4882129;29;20052;-75
2023/04/02 09:00:48;;;;;;;2.47;1.05;;;;;;;;;;4895436;29;20036;-74
2023/04/02 09:03:19;;;;;;;3.90;1.40;;;;;;;;;;4892027;29;20028;-73
2023/04/02 09:05:46;;;;;;;7.22;1.33;;;;;;;;;;4910074;29;20366;-77
2023/04/02 09:08:20;;;;;;;3.63;1.33;;;;;;;;;;4911834;29;20024;-81
2023/04/02 09:10:50;;;;;;;3.90;1.17;;;;;;;;;;4895170;29;20451;-80
2023/04/02 09:13:24;;;;;;;4.75;0.80;;;;;;;;;;4879432;29;20052;-81
2023/04/02 09:22:51;;;;;;;;;;;;;;;;;;;;;
2023/04/02 09:25:25;;;;;;;4.18;1.15;;;;;;;;;;4896664;29;20119;-81
2023/04/02 09:31:14;;;;;;;2.85;1.10;;;;;;;;;;4908301;29;20040;-83
2023/04/02 09:33:41;;;;;;;7.30;1.05;;;;;;;;;;4903139;29;20037;-79
2023/04/02 09:36:16;;;;;;;8.25;2.40;;;;;;;;;;4883062;29;20060;-83
2023/04/02 09:38:59;;;;;;;5.82;1.35;;;;;;;;;;4886201;29;20048;-86
2023/04/02 09:42:37;;;;;;;;;;;;;;;;;;;;;
2023/04/02 09:45:22;;;;;;;4.65;1.10;;;;;;;;;;5076667;28;20032;-84
2023/04/02 09:47:49;;;;;;;1.55;0.82;;;;;;;;;;5066514;28;20024;-81
2023/04/02 09:50:26;;;;;;;3.17;1.17;;;;;;;;;;5061804;28;20020;-82
2023/04/02 09:53:12;;;;;;;2.80;0.90;;;;;;;;;;5066314;28;20038;-81
2023/04/02 09:55:38;;;;;;;3.13;1.08;;;;;;;;;;5065257;28;20029;-84
2023/04/02 09:58:36;;;;;;;2.72;1.13;;;;;;;;;;5069460;28;20391;-84
2023/04/02 10:01:02;;;;;;;3.70;1.23;;;;;;;;;;5062363;28;20514;-86
2023/04/02 10:03:29;;;;;;;2.78;0.88;;;;;;;;;;5069469;28;20113;-83
2023/04/02 10:06:05;;;;;;;4.63;1.40;;;;;;;;;;5055628;28;20029;-83
2023/04/02 10:08:31;;;;;;;2.33;1.15;;;;;;;;;;5059334;28;20033;-83
2023/04/02 10:11:00;;;;;;;4.47;1.23;;;;;;;;;;5061662;28;20485;-81
2023/04/02 10:13:50;;;;;;;4.65;1.05;;;;;;;;;;5045862;28;20066;-83
2023/04/02 10:16:43;;;;;;;3.05;1.05;;;;;;;;;;5054949;28;20029;-81
2023/04/02 10:19:12;;;;;;;2.13;0.70;;;;;;;;;;5067068;28;20552;-81
2023/04/02 10:21:39;;;;;;;2.63;1.00;;;;;;;;;;5063188;28;20039;-79
2023/04/02 10:24:15;;;;;;;2.65;0.90;;;;;;;;;;5055215;28;20135;-77
2023/04/02 10:26:53;;;;;;;3.33;1.17;;;;;;;;;;5056533;28;20032;-79
2023/04/02 10:30:00;;;;;;;;;;;;;;;;;;;;;
2023/04/02 10:32:31;;;;;;;3.45;1.00;;;;;;;;;;5074817;28;20613;-82
2023/04/02 10:35:02;;;;;;;4.20;1.45;;;;;;;;;;5064992;28;20465;-78
2023/04/02 10:37:46;;;;;;;4.75;1.45;;;;;;;;;;5051496;28;20383;-78
2023/04/02 10:40:24;;;;;;;6.53;1.63;;;;;;;;;;5043959;28;20053;-77
2023/04/02 10:43:09;;;;;;;6.32;1.60;;;;;;;;;;5044747;28;20128;-78
2023/04/02 10:45:45;;;;;;;2.08;0.82;;;;;;;;;;5034952;28;20021;-76
2023/04/02 10:48:18;;;;;;;2.95;0.98;;;;;;;;;;5053246;28;20128;-77
2023/04/02 10:50:50;;;;;;;;;;;15.60;99.90;;;;;;5045112;28;20408;-76
2023/04/02 10:53:19;;;;;;;2.80;0.82;;;;;;;;;;5046294;28;19913;-76
2023/04/02 10:55:48;;;;;;;3.38;0.80;;;;;;;;;;5016060;28;20040;-77
2023/04/02 10:58:20;;;;;;;2.97;1.00;;;;;;;;;;5018728;28;20045;-77
2023/04/02 11:00:46;;;;;;;3.47;1.13;;;;;;;;;;5021915;28;20033;-76
2023/04/02 11:03:18;;;;;;;2.05;0.80;;;;;;;;;;5037537;28;20076;-79
2023/04/02 11:05:45;;;;;;;10.05;5.53;;;;;;;;;;5041475;28;20022;-81
2023/04/02 11:08:29;;;;;;;3.92;1.38;;;;;;;;;;5047088;28;20125;-82
2023/04/02 11:11:07;;;;;;;2.00;1.02;;;;;;;;;;5036710;28;20040;-85
2023/04/02 11:13:47;;;;;;;4.53;1.02;;;;;;;;;;5052315;28;20032;-83
2023/04/02 11:16:16;;;;;;;3.15;0.80;;;;;;;;;;5047950;28;20033;-81
2023/04/02 11:18:43;;;;;;;1.58;0.70;;;;;;;;;;5031090;28;20037;-80
2023/04/02 11:21:39;;;;;;;1.20;0.55;;;15.70;99.90;;;;;;5035475;28;20040;-80
2023/04/02 11:24:06;;;;;;;4.82;1.02;;;;;;;;;;5049524;28;20029;-80
2023/04/02 11:26:37;;;;;;;3.35;0.90;;;;;;;;;;5040915;28;20370;-79
2023/04/02 11:29:33;;;;;;;3.70;0.85;;;;;;;;;;5049149;28;20025;-82
2023/04/02 11:32:18;;;;;;;2.22;0.65;;;;;;;;;;5024683;28;20033;-80
2023/04/02 11:34:44;;;;;;;3.00;1.08;;;;;;;;;;5051774;28;20033;-80
2023/04/02 11:37:29;;;;;;;1.50;0.57;;;;;;;;;;5041294;28;20100;-80
2023/04/02 11:39:57;;;;;;;6.25;1.08;;;;;;;;;;5044305;28;20048;-79
2023/04/02 11:42:29;;;;;;;1.83;0.77;;;;;;;;;;5040923;28;20478;-81
2023/04/02 11:44:56;;;;;;;2.42;0.82;;;;;;;;;;5053404;28;20035;-79
2023/04/02 11:47:23;;;;;;;1.88;0.80;;;;;;;;;;5037704;28;20078;-80
2023/04/02 11:49:59;;;;;;;6.50;1.40;;;;;;;;;;5047963;28;20033;-81
2023/04/02 11:52:33;;;;;;;1.92;0.63;;;;;;;;;;5037674;28;20111;-79
2023/04/02 11:55:05;;;;;;;4.38;1.15;;;;;;;;;;5044031;28;20079;-79
2023/04/02 11:57:31;;;;;;;3.25;1.15;;;;;;;;;;5050945;28;20119;-79
2023/04/02 12:00:10;;;;;;;3.25;1.52;;;;;;;;;;5053348;28;20040;-79
2023/04/02 12:02:58;;;;;;;1.50;0.57;;;;;;;;;;5040024;28;20496;-79
2023/04/02 12:05:35;;;;;;;3.85;0.60;;;;;;;;;;5040577;28;20080;-79
2023/04/02 12:08:08;;;;;;;3.03;0.65;;;;;;;;;;5040603;28;20025;-81
2023/04/02 12:10:53;;;;;;;3.92;0.70;;;;;;;;;;5053036;28;20044;-79
2023/04/02 12:13:20;;;;;;;1.27;0.52;;;;;;;;;;5047925;28;20032;-79
2023/04/02 12:15:47;;;;;;;7.35;1.23;;;;;;;;;;5054212;28;20082;-80
2023/04/02 12:18:21;;;;;;;4.72;0.80;;;;;;;;;;5048731;28;20029;-79
2023/04/02 12:20:53;;;;;;;2.72;0.65;;;;;;;;;;5050920;28;20037;-79
2023/04/02 12:23:30;;;;;;;5.45;0.70;;;;;;;;;;5043450;28;20024;-79
2023/04/02 12:26:02;;;;;;;6.13;1.10;;;;;;;;;;5044932;28;20048;-79
2023/04/02 12:28:28;;;;;;;1.30;0.70;;;;;;;;;;5069332;28;20032;-80
2023/04/02 12:31:16;;;;;;;3.85;0.70;;;;;;;;;;5046868;28;20124;-81
2023/04/02 12:33:42;;;;;;;4.82;0.90;;;;;;;;;;5038305;28;20058;-79
2023/04/02 12:36:14;;;;;;;4.13;0.60;;;;;;;;;;5034196;28;20086;-80
2023/04/02 12:38:45;;;;;;;3.75;0.98;;;;;;;;;;5044537;28;20152;-80
2023/04/02 12:41:22;;;;;;;1.80;0.60;;;;;;;;;;5037531;28;20059;-80
2023/04/02 12:43:56;;;;;;;2.33;0.63;;;;;;;;;;5037235;28;20048;-80
2023/04/02 12:46:24;;;;;;;4.13;0.55;;;;;;;;;;5044056;28;20060;-80
2023/04/02 12:48:50;;;;;;;3.58;0.88;;;;;;;;;;5034122;28;20029;-79
2023/04/02 12:51:16;;;;;;;3.03;0.70;;;;;;;;;;5037380;28;20029;-80
2023/04/02 12:53:49;;;;;;;2.83;0.70;;;;;;;;;;5044886;28;20591;-79
2023/04/02 12:56:15;;;;;;;;;;;;;;;;;;5041854;28;20029;-77
2023/04/02 12:58:41;;;;;;;1.33;0.50;;;;;;;;;;5055550;28;19999;-77
2023/04/02 13:01:12;;;;;;;2.60;0.80;;;;;;;;;;5037043;28;20512;-79
2023/04/02 13:03:38;;;;;;;1.58;0.68;;;;;;;;;;5044471;28;20039;-77
2023/04/02 13:06:17;;;;;;;3.30;0.65;;;;;;;;;;5046116;28;20024;-78
2023/04/02 13:08:44;;;;;;;2.72;1.10;;;;;;;;;;5069482;28;20051;-80
2023/04/02 13:11:10;;;;;;;5.15;1.20;;;;;;;;;;5050841;28;20097;-78
2023/04/02 13:13:38;;;;;;;3.97;1.20;;;;;;;;;;5035735;28;20547;-75
2023/04/02 13:16:23;;;;;;;4.85;0.70;;;;;;;;;;5045523;28;20037;-76
2023/04/02 13:18:50;;;;;;;3.47;0.57;;;;;;;;;;5040843;28;20029;-77
2023/04/02 13:21:16;;;;;;;1.90;0.63;;;;;;;;;;5033475;28;20032;-79
2023/04/02 13:23:43;;;;;;;3.90;2.22;;;;;;;;;;5036057;28;20124;-79
2023/04/02 13:26:20;;;;;;;4.25;0.85;;;;;;;;;;5044248;28;20082;-78
2023/04/02 13:28:57;;;;;;;1.80;0.60;;;;;;;;;;5047632;28;20063;-78
2023/04/02 13:31:23;;;;;;;2.92;0.77;;;;;;;;;;5038057;28;20040;-79
2023/04/02 13:33:49;;;;;;;2.28;0.60;;;;;;;;;;5039274;28;20029;-79
2023/04/02 13:36:29;;;;;;;1.90;0.70;;;;;;;;;;5032703;28;20482;-79
2023/04/02 13:38:55;;;;;;;1.77;0.80;;;;;;;;;;5033229;28;20051;-78
2023/04/02 13:41:23;;;;;;;2.15;0.95;;;;;;;;;;5043427;28;20091;-78
2023/04/02 13:44:12;;;;;;;3.03;1.27;;;;;;;;;;5031939;28;20692;-79
2023/04/02 13:46:42;;;;;;;7.28;0.63;;;;;;;;;;5030786;28;20496;-79
2023/04/02 13:49:10;;;;;;;1.08;0.57;;;;;;;;;;5035938;28;20071;-78
2023/04/02 13:51:38;;;;;;;2.47;0.73;;;;;;;;;;5040549;28;20056;-76
2023/04/02 13:54:06;;;;;;;1.98;0.70;;;;;;;;;;5038567;28;20465;-78
2023/04/02 13:56:32;;;;;;;1.70;0.70;;;;;;;;;;5050226;28;20040;-77
2023/04/02 13:58:58;;;;;;;2.92;0.63;;;;;;;;;;5035055;28;20424;-77
2023/04/02 14:01:26;;;;;;;1.30;0.60;;;;;;;;;;5042117;28;20524;-79
2023/04/02 14:03:53;;;;;;;2.03;0.73;;;;;;;;;;5041040;28;20040;-78
2023/04/02 14:06:32;;;;;;;3.10;0.52;;;;;;;;;;5041553;28;20077;-79
2023/04/02 14:09:01;;;;;;;1.85;0.80;;;;;;;;;;5032522;28;20112;-78
2023/04/02 14:11:34;;;;;;;1.83;0.75;;;;;;;;;;5033849;28;20032;-78
2023/04/02 14:14:00;;;;;;;;;;;;;;;;;;5046516;28;20083;-80
2023/04/02 14:16:31;;;;;;;4.82;0.73;;;;;;;;;;5033866;28;19920;-81
2023/04/02 14:19:00;;;;;;;3.47;1.10;;;;;;;;;;5033231;28;20025;-81
2023/04/02 14:21:48;;;;;;;5.78;1.00;;;;;;;;;;5048467;28;20135;-82
2023/04/02 14:24:31;;;;;;;7.43;4.28;;;;;;;;;;5043270;28;20107;-77
2023/04/02 14:27:00;;;;;;;8.75;5.43;;;;;;;;;;5052358;28;20370;-81
2023/04/02 14:29:32;;;;;;;1.80;0.60;;;;;;;;;;5044501;28;20033;-73
2023/04/02 14:32:01;;;;;;;3.72;0.80;;;;;;;;;;5052213;28;20017;-78
2023/04/02 14:34:30;;;;;;;2.92;0.70;;;;;;;;;;5052251;28;20028;-75
2023/04/02 14:37:03;;;;;;;14.38;6.03;;;;;;;;;;5043942;28;20040;-81
2023/04/02 14:39:48;;;;;;;5.28;1.40;;;;;;;;;;5046303;28;20029;-78
2023/04/02 14:42:33;;;;;;;4.28;1.40;;;;;;;;;;5051175;28;20079;-79
2023/04/02 14:45:03;;;;;;;4.38;0.93;;;;;;;;;;5064701;28;20032;-81
2023/04/02 14:47:33;;;;;;;2.17;0.70;;;;;;;;;;5044976;28;20029;-78
2023/04/02 14:50:02;;;;;;;4.05;0.80;;;;;;;;;;5045358;28;20060;-85
2023/04/02 14:52:31;;;;;;;2.78;1.17;;;;;;;;;;5048114;28;20090;-81
2023/04/02 14:55:06;;;;;;;2.97;1.00;;;;;;;;;;5047488;28;20021;-79
2023/04/02 14:57:34;;;;;;;3.33;0.93;;;;;;;;;;5046999;28;20041;-79
2023/04/02 15:00:23;;;;;;;3.47;0.88;;;;;;;;;;5033355;28;20104;-77
2023/04/02 15:02:55;;;;;;;1.85;0.75;;;;;;;;;;5043657;28;20035;-81
2023/04/02 15:05:31;;;;;;;5.35;0.73;;;;;;;;;;5040798;28;20027;-80
2023/04/02 15:08:00;;;;;;;1.30;0.70;;;;;;;;;;5040487;28;20037;-81
2023/04/02 15:10:28;;;;;;;3.15;0.88;;;;;;;;;;5047253;28;20501;-80
2023/04/02 15:12:55;;;;;;;2.50;0.55;;;;;;;;;;5046817;28;20059;-80
2023/04/02 15:15:32;;;;;;;4.32;1.08;;;;;;;;;;5052166;28;20078;-80
2023/04/02 15:18:00;;;;;;;3.58;0.93;;;;;;;;;;5042798;28;20036;-80
2023/04/02 15:20:32;;;;;;;3.05;0.70;;;;;;;;;;5064567;28;20044;-79
2023/04/02 15:23:05;;;;;;;2.58;0.80;;;;;;;;;;5050411;28;20040;-82
2023/04/02 15:25:44;;;;;;;2.97;0.95;;;;;;;;;;5047330;28;20125;-78
2023/04/02 15:28:29;;;;;;;2.25;0.80;;;;;;;;;;5047449;28;20027;-81
2023/04/02 15:30:58;;;;;;;3.28;0.70;;;;;;;;;;5041557;28;20502;-80
2023/04/02 15:33:27;;;;;;;2.30;0.60;;;;;;;;;;5033951;28;20460;-79
2023/04/02 15:35:53;;;;;;;5.68;0.90;;;;;;;;;;5062236;28;20031;-81
2023/04/02 15:38:25;;;;;;;3.63;0.80;;;;;;;;;;5049089;28;20410;-74
2023/04/02 15:40:54;;;;;;;6.47;3.78;;;;;;;;;;5033595;28;20092;-80
2023/04/02 15:43:24;;;;;;;11.90;6.07;;;;;;;;;;5066525;28;20086;-81
2023/04/02 15:46:11;;;;;;;6.30;2.45;;;;;;;;;;5046835;28;20461;-85
2023/04/02 15:48:43;;;;;;;4.95;2.58;;;;;;;;;;5045358;28;20146;-80